Aérodrome :
LOGIN :

S'inscrire | Disclaimer

   EN    FR    IT 

 










Légende :    VFR   VFR Marginal   IFR   IFR Intensif   IFR Très Intensif
Visi : 
Plafond : 
>= 8 km
>= 3000ft
5 à 8 km
1000 à 3000 ft
1500m à 5 km
500 à 1000 ft
800 à 1500m
200 à 500 ft
< 800m
< 200 ft
Symboles :   Orages  Brouillard  Fortes neiges  Fortes précipitations  Vent > 20 kt
SIGMETs :   Divers  Orages  Givrage  Turbulence  Onde Orograph.  Cendres Volcan.







- Altitude de l'aérodrome : 59 ft
- Code IATA : EFL


LGKF - Kefalonia Island

METARs EXPIRÉS :
  • 131250Z 26004KT CAVOK 21/10 Q1025

TAF TAF LGKF
Valide du 13 à 15h jusqu'au 14 à 00h UTC


131400Z 1315/1324 VRB05KT 9999 FEW018
BECMG 1318/1320 04010KT
Pas de NOTAMs connus pour ce terrain.
1 SIGMET publié pour la FIR Athinai (LGGG) :
 
Turbulence forte
LGGG SIGMET 2 VALID 131255/131655 LGAT
LGGG ATHINAI FIR SEV TURB FCST E OF E02200 AND S OF N4000 FL200/400 STNR NC=



MET'MAP, la Météo Aéronautique d'un coup d'oeil ! - Copyright ORBIFLY Décembre 2007 - Disclaimer

ORBIFLY MET'MAP TEAM :

Programmation & Développement : Alexandra Zaïnal
Conception & Développement : Baudouin d'Aumeries
Co-Programmation & Développement : Marc-Olivier Méhu
Soutien technique & logistique : Manuel Goepfert

Contact : metmap@orbifly.com




SOURCES & CREDITS :

   NOAA